sensor_id;sensor_type;location;lat;lon;timestamp;temperature;humidity
37594;DHT22;23441;50.856;6.076;2022-08-07T00:01:43;12.90;99.90
37594;DHT22;23441;50.856;6.076;2022-08-07T00:04:09;12.90;99.90
37594;DHT22;23441;50.856;6.076;2022-08-07T00:06:35;12.90;99.90
37594;DHT22;23441;50.856;6.076;2022-08-07T00:09:03;12.80;99.90
37594;DHT22;23441;50.856;6.076;2022-08-07T00:11:29;12.80;99.90
37594;DHT22;23441;50.856;6.076;2022-08-07T00:13:55;12.80;99.90
37594;DHT22;23441;50.856;6.076;2022-08-07T00:16:22;12.80;99.90
37594;DHT22;23441;50.856;6.076;2022-08-07T00:18:48;12.80;99.90
37594;DHT22;23441;50.856;6.076;2022-08-07T00:21:14;12.80;99.90
37594;DHT22;23441;50.856;6.076;2022-08-07T00:23:40;12.80;99.90
37594;DHT22;23441;50.856;6.076;2022-08-07T00:26:07;12.70;99.90
37594;DHT22;23441;50.856;6.076;2022-08-07T00:28:35;12.70;99.90
37594;DHT22;23441;50.856;6.076;2022-08-07T00:31:08;12.70;99.90
37594;DHT22;23441;50.856;6.076;2022-08-07T00:33:36;12.80;99.90
37594;DHT22;23441;50.856;6.076;2022-08-07T00:36:04;13.00;99.90
37594;DHT22;23441;50.856;6.076;2022-08-07T00:38:31;13.00;99.90
37594;DHT22;23441;50.856;6.076;2022-08-07T00:40:59;13.10;99.90
37594;DHT22;23441;50.856;6.076;2022-08-07T00:43:25;13.00;99.90
37594;DHT22;23441;50.856;6.076;2022-08-07T00:45:51;12.90;99.90
37594;DHT22;23441;50.856;6.076;2022-08-07T00:48:17;12.70;99.90
37594;DHT22;23441;50.856;6.076;2022-08-07T00:50:43;12.60;99.90
37594;DHT22;23441;50.856;6.076;2022-08-07T00:53:09;12.60;99.90
37594;DHT22;23441;50.856;6.076;2022-08-07T00:55:35;12.60;99.90
37594;DHT22;23441;50.856;6.076;2022-08-07T00:58:02;12.60;99.90
37594;DHT22;23441;50.856;6.076;2022-08-07T01:00:28;12.40;99.90
37594;DHT22;23441;50.856;6.076;2022-08-07T01:02:54;12.40;99.90
37594;DHT22;23441;50.856;6.076;2022-08-07T01:05:20;12.30;99.90
37594;DHT22;23441;50.856;6.076;2022-08-07T01:07:47;12.30;99.90
37594;DHT22;23441;50.856;6.076;2022-08-07T01:10:13;12.30;99.90
37594;DHT22;23441;50.856;6.076;2022-08-07T01:12:41;12.30;99.90
37594;DHT22;23441;50.856;6.076;2022-08-07T01:15:07;12.20;99.90
37594;DHT22;23441;50.856;6.076;2022-08-07T01:17:34;12.10;99.90
37594;DHT22;23441;50.856;6.076;2022-08-07T01:20:07;12.10;99.90
37594;DHT22;23441;50.856;6.076;2022-08-07T01:22:38;12.00;99.90
37594;DHT22;23441;50.856;6.076;2022-08-07T01:25:07;12.00;99.90
37594;DHT22;23441;50.856;6.076;2022-08-07T01:27:37;12.00;99.90
37594;DHT22;23441;50.856;6.076;2022-08-07T01:30:03;11.90;99.90
37594;DHT22;23441;50.856;6.076;2022-08-07T01:32:30;11.90;99.90
37594;DHT22;23441;50.856;6.076;2022-08-07T01:34:56;11.90;99.90
37594;DHT22;23441;50.856;6.076;2022-08-07T01:37:23;11.90;99.90
37594;DHT22;23441;50.856;6.076;2022-08-07T01:39:49;12.00;99.90
37594;DHT22;23441;50.856;6.076;2022-08-07T01:42:16;12.10;99.90
37594;DHT22;23441;50.856;6.076;2022-08-07T01:44:42;12.10;99.90
37594;DHT22;23441;50.856;6.076;2022-08-07T01:47:08;12.00;99.90
37594;DHT22;23441;50.856;6.076;2022-08-07T01:49:35;11.90;99.90
37594;DHT22;23441;50.856;6.076;2022-08-07T01:52:03;11.90;99.90
37594;DHT22;23441;50.856;6.076;2022-08-07T01:54:34;11.80;99.90
37594;DHT22;23441;50.856;6.076;2022-08-07T01:57:05;11.80;99.90
37594;DHT22;23441;50.856;6.076;2022-08-07T01:59:45;11.90;99.90
37594;DHT22;23441;50.856;6.076;2022-08-07T02:02:19;11.80;99.90
37594;DHT22;23441;50.856;6.076;2022-08-07T02:05:00;11.80;99.90
37594;DHT22;23441;50.856;6.076;2022-08-07T02:07:33;11.80;99.90
37594;DHT22;23441;50.856;6.076;2022-08-07T02:10:04;11.70;99.90
37594;DHT22;23441;50.856;6.076;2022-08-07T02:12:35;11.70;99.90
37594;DHT22;23441;50.856;6.076;2022-08-07T02:15:03;11.70;99.90
37594;DHT22;23441;50.856;6.076;2022-08-07T02:17:30;11.70;99.90
37594;DHT22;23441;50.856;6.076;2022-08-07T02:19:58;11.80;99.90
37594;DHT22;23441;50.856;6.076;2022-08-07T02:22:27;11.70;99.90
37594;DHT22;23441;50.856;6.076;2022-08-07T02:24:55;11.60;99.90
37594;DHT22;23441;50.856;6.076;2022-08-07T02:27:24;11.60;99.90
37594;DHT22;23441;50.856;6.076;2022-08-07T02:29:51;11.60;99.90
37594;DHT22;23441;50.856;6.076;2022-08-07T02:32:19;11.50;99.90
37594;DHT22;23441;50.856;6.076;2022-08-07T02:34:45;11.40;99.90
37594;DHT22;23441;50.856;6.076;2022-08-07T02:37:13;11.40;99.90
37594;DHT22;23441;50.856;6.076;2022-08-07T02:39:42;11.40;99.90
37594;DHT22;23441;50.856;6.076;2022-08-07T02:42:10;11.40;99.90
37594;DHT22;23441;50.856;6.076;2022-08-07T02:44:39;11.30;99.90
37594;DHT22;23441;50.856;6.076;2022-08-07T02:47:05;11.30;99.90
37594;DHT22;23441;50.856;6.076;2022-08-07T02:49:33;11.20;99.90
37594;DHT22;23441;50.856;6.076;2022-08-07T02:52:01;11.20;99.90
37594;DHT22;23441;50.856;6.076;2022-08-07T02:54:29;11.10;99.90
37594;DHT22;23441;50.856;6.076;2022-08-07T02:57:00;11.00;99.90
37594;DHT22;23441;50.856;6.076;2022-08-07T02:59:28;10.90;99.90
37594;DHT22;23441;50.856;6.076;2022-08-07T03:01:55;10.80;99.90
37594;DHT22;23441;50.856;6.076;2022-08-07T03:04:22;10.80;99.90
37594;DHT22;23441;50.856;6.076;2022-08-07T03:06:49;10.80;99.90
37594;DHT22;23441;50.856;6.076;2022-08-07T03:09:17;10.70;99.90
37594;DHT22;23441;50.856;6.076;2022-08-07T03:11:46;10.70;99.90
37594;DHT22;23441;50.856;6.076;2022-08-07T03:14:14;10.70;99.90
37594;DHT22;23441;50.856;6.076;2022-08-07T03:16:40;10.60;99.90
37594;DHT22;23441;50.856;6.076;2022-08-07T03:19:08;10.70;99.90
37594;DHT22;23441;50.856;6.076;2022-08-07T03:21:35;10.70;99.90
37594;DHT22;23441;50.856;6.076;2022-08-07T03:24:01;10.70;99.90
37594;DHT22;23441;50.856;6.076;2022-08-07T03:26:31;10.60;99.90
37594;DHT22;23441;50.856;6.076;2022-08-07T03:29:01;10.60;99.90
37594;DHT22;23441;50.856;6.076;2022-08-07T03:31:29;10.60;99.90
37594;DHT22;23441;50.856;6.076;2022-08-07T03:33:58;10.70;99.90
37594;DHT22;23441;50.856;6.076;2022-08-07T03:36:28;10.70;99.90
37594;DHT22;23441;50.856;6.076;2022-08-07T03:38:58;10.70;99.90
37594;DHT22;23441;50.856;6.076;2022-08-07T03:41:29;10.70;99.90
37594;DHT22;23441;50.856;6.076;2022-08-07T03:43:56;10.70;99.90
37594;DHT22;23441;50.856;6.076;2022-08-07T03:46:23;10.70;99.90
37594;DHT22;23441;50.856;6.076;2022-08-07T03:48:50;10.60;99.90
37594;DHT22;23441;50.856;6.076;2022-08-07T03:51:17;10.50;99.90
37594;DHT22;23441;50.856;6.076;2022-08-07T03:53:45;10.40;99.90
37594;DHT22;23441;50.856;6.076;2022-08-07T03:56:13;10.30;99.90
37594;DHT22;23441;50.856;6.076;2022-08-07T03:58:45;10.40;99.90
37594;DHT22;23441;50.856;6.076;2022-08-07T04:01:12;10.40;99.90
37594;DHT22;23441;50.856;6.076;2022-08-07T04:03:40;10.40;99.90
37594;DHT22;23441;50.856;6.076;2022-08-07T04:06:10;10.50;99.90
37594;DHT22;23441;50.856;6.076;2022-08-07T04:08:39;10.50;99.90
37594;DHT22;23441;50.856;6.076;2022-08-07T04:11:06;10.60;99.90
37594;DHT22;23441;50.856;6.076;2022-08-07T04:13:33;10.60;99.90
37594;DHT22;23441;50.856;6.076;2022-08-07T04:16:00;10.60;99.90
37594;DHT22;23441;50.856;6.076;2022-08-07T04:18:26;10.50;99.90
37594;DHT22;23441;50.856;6.076;2022-08-07T04:20:52;10.50;99.90
37594;DHT22;23441;50.856;6.076;2022-08-07T04:23:19;10.40;99.90
37594;DHT22;23441;50.856;6.076;2022-08-07T04:25:45;10.40;99.90
37594;DHT22;23441;50.856;6.076;2022-08-07T04:28:12;10.40;99.90
37594;DHT22;23441;50.856;6.076;2022-08-07T04:30:38;10.40;99.90
37594;DHT22;23441;50.856;6.076;2022-08-07T04:33:09;10.40;99.90
37594;DHT22;23441;50.856;6.076;2022-08-07T04:35:36;10.40;99.90
37594;DHT22;23441;50.856;6.076;2022-08-07T04:38:09;10.40;99.90
37594;DHT22;23441;50.856;6.076;2022-08-07T04:40:39;10.40;99.90
37594;DHT22;23441;50.856;6.076;2022-08-07T04:43:06;10.40;99.90
37594;DHT22;23441;50.856;6.076;2022-08-07T04:45:50;10.40;99.90
37594;DHT22;23441;50.856;6.076;2022-08-07T04:51:27;10.40;99.90
37594;DHT22;23441;50.856;6.076;2022-08-07T04:54:07;10.40;99.90
37594;DHT22;23441;50.856;6.076;2022-08-07T04:56:50;10.40;99.90
37594;DHT22;23441;50.856;6.076;2022-08-07T04:59:32;10.50;99.90
37594;DHT22;23441;50.856;6.076;2022-08-07T05:02:10;10.60;99.90
37594;DHT22;23441;50.856;6.076;2022-08-07T05:07:34;10.70;99.90
37594;DHT22;23441;50.856;6.076;2022-08-07T05:10:19;10.70;99.90
37594;DHT22;23441;50.856;6.076;2022-08-07T05:13:02;10.80;99.90
37594;DHT22;23441;50.856;6.076;2022-08-07T05:15:38;10.80;99.90
37594;DHT22;23441;50.856;6.076;2022-08-07T05:18:10;10.90;99.90
37594;DHT22;23441;50.856;6.076;2022-08-07T05:20:42;11.00;99.90
37594;DHT22;23441;50.856;6.076;2022-08-07T05:23:20;11.10;99.90
37594;DHT22;23441;50.856;6.076;2022-08-07T05:25:48;11.20;99.90
37594;DHT22;23441;50.856;6.076;2022-08-07T05:28:16;11.20;99.90
37594;DHT22;23441;50.856;6.076;2022-08-07T05:30:43;11.40;99.90
37594;DHT22;23441;50.856;6.076;2022-08-07T05:33:12;11.40;99.90
37594;DHT22;23441;50.856;6.076;2022-08-07T05:35:39;11.50;99.90
37594;DHT22;23441;50.856;6.076;2022-08-07T05:38:07;11.60;99.90
37594;DHT22;23441;50.856;6.076;2022-08-07T05:40:35;11.80;99.90
37594;DHT22;23441;50.856;6.076;2022-08-07T05:43:02;11.80;99.90
37594;DHT22;23441;50.856;6.076;2022-08-07T05:45:28;12.00;99.90
37594;DHT22;23441;50.856;6.076;2022-08-07T05:47:55;12.00;99.90
37594;DHT22;23441;50.856;6.076;2022-08-07T05:50:22;12.10;99.90
37594;DHT22;23441;50.856;6.076;2022-08-07T05:52:48;12.20;99.90
37594;DHT22;23441;50.856;6.076;2022-08-07T05:55:14;12.40;99.90
37594;DHT22;23441;50.856;6.076;2022-08-07T05:57:41;12.50;99.90
37594;DHT22;23441;50.856;6.076;2022-08-07T06:00:08;12.60;99.90
37594;DHT22;23441;50.856;6.076;2022-08-07T06:02:35;12.70;99.90
37594;DHT22;23441;50.856;6.076;2022-08-07T06:05:06;12.80;99.90
37594;DHT22;23441;50.856;6.076;2022-08-07T06:07:34;12.90;99.90
37594;DHT22;23441;50.856;6.076;2022-08-07T06:10:00;13.00;99.90
37594;DHT22;23441;50.856;6.076;2022-08-07T06:12:27;13.10;99.90
37594;DHT22;23441;50.856;6.076;2022-08-07T06:14:54;13.20;99.90
37594;DHT22;23441;50.856;6.076;2022-08-07T06:17:20;13.30;99.90
37594;DHT22;23441;50.856;6.076;2022-08-07T06:19:48;13.50;99.90
37594;DHT22;23441;50.856;6.076;2022-08-07T06:22:15;13.70;99.90
37594;DHT22;23441;50.856;6.076;2022-08-07T06:24:43;13.90;99.90
37594;DHT22;23441;50.856;6.076;2022-08-07T06:27:09;14.00;99.90
37594;DHT22;23441;50.856;6.076;2022-08-07T06:29:35;14.10;99.90
37594;DHT22;23441;50.856;6.076;2022-08-07T06:32:01;14.30;99.90
37594;DHT22;23441;50.856;6.076;2022-08-07T06:34:27;14.40;99.90
37594;DHT22;23441;50.856;6.076;2022-08-07T06:36:53;15.00;99.90
37594;DHT22;23441;50.856;6.076;2022-08-07T06:39:20;16.30;99.90
37594;DHT22;23441;50.856;6.076;2022-08-07T06:41:53;18.50;99.90
37594;DHT22;23441;50.856;6.076;2022-08-07T06:44:23;20.00;99.90
37594;DHT22;23441;50.856;6.076;2022-08-07T06:46:49;21.50;99.90
37594;DHT22;23441;50.856;6.076;2022-08-07T06:49:15;21.90;99.90
37594;DHT22;23441;50.856;6.076;2022-08-07T06:51:42;23.30;99.90
37594;DHT22;23441;50.856;6.076;2022-08-07T06:54:11;24.50;99.90
37594;DHT22;23441;50.856;6.076;2022-08-07T06:56:39;24.00;99.90
37594;DHT22;23441;50.856;6.076;2022-08-07T06:59:25;23.80;97.90
37594;DHT22;23441;50.856;6.076;2022-08-07T07:01:56;24.60;98.80
37594;DHT22;23441;50.856;6.076;2022-08-07T07:04:24;24.40;96.80
37594;DHT22;23441;50.856;6.076;2022-08-07T07:06:51;25.10;93.30
37594;DHT22;23441;50.856;6.076;2022-08-07T07:14:30;23.30;94.70
37594;DHT22;23441;50.856;6.076;2022-08-07T07:17:05;22.50;95.60
37594;DHT22;23441;50.856;6.076;2022-08-07T07:19:38;21.30;96.20
37594;DHT22;23441;50.856;6.076;2022-08-07T07:22:08;21.00;97.50
37594;DHT22;23441;50.856;6.076;2022-08-07T07:24:35;20.60;98.70
37594;DHT22;23441;50.856;6.076;2022-08-07T07:27:05;20.70;99.90
37594;DHT22;23441;50.856;6.076;2022-08-07T07:29:35;20.80;99.50
37594;DHT22;23441;50.856;6.076;2022-08-07T07:32:07;21.30;98.80
37594;DHT22;23441;50.856;6.076;2022-08-07T07:34:38;22.20;95.30
37594;DHT22;23441;50.856;6.076;2022-08-07T07:37:07;22.00;94.20
37594;DHT22;23441;50.856;6.076;2022-08-07T07:39:36;21.50;97.50
37594;DHT22;23441;50.856;6.076;2022-08-07T07:42:05;20.80;95.90
37594;DHT22;23441;50.856;6.076;2022-08-07T07:44:34;20.40;98.20
37594;DHT22;23441;50.856;6.076;2022-08-07T07:47:02;19.90;96.90
37594;DHT22;23441;50.856;6.076;2022-08-07T07:49:28;19.40;95.80
37594;DHT22;23441;50.856;6.076;2022-08-07T07:51:57;19.20;99.90
37594;DHT22;23441;50.856;6.076;2022-08-07T07:54:24;19.10;99.90
37594;DHT22;23441;50.856;6.076;2022-08-07T07:56:51;19.30;99.90
37594;DHT22;23441;50.856;6.076;2022-08-07T07:59:19;19.40;99.90
37594;DHT22;23441;50.856;6.076;2022-08-07T08:01:46;19.40;99.90
37594;DHT22;23441;50.856;6.076;2022-08-07T08:04:13;19.20;99.90
37594;DHT22;23441;50.856;6.076;2022-08-07T08:06:42;19.10;99.90
37594;DHT22;23441;50.856;6.076;2022-08-07T08:09:09;19.00;99.90
37594;DHT22;23441;50.856;6.076;2022-08-07T08:11:37;19.00;99.90
37594;DHT22;23441;50.856;6.076;2022-08-07T08:14:04;19.00;99.90
37594;DHT22;23441;50.856;6.076;2022-08-07T08:16:41;19.00;99.90
37594;DHT22;23441;50.856;6.076;2022-08-07T08:19:12;19.00;99.90
37594;DHT22;23441;50.856;6.076;2022-08-07T08:21:43;19.00;99.00
37594;DHT22;23441;50.856;6.076;2022-08-07T08:24:33;18.90;99.50
37594;DHT22;23441;50.856;6.076;2022-08-07T08:27:21;18.90;98.70
37594;DHT22;23441;50.856;6.076;2022-08-07T08:29:53;18.90;98.40
37594;DHT22;23441;50.856;6.076;2022-08-07T08:32:24;19.00;96.10
37594;DHT22;23441;50.856;6.076;2022-08-07T08:34:53;18.90;97.60
37594;DHT22;23441;50.856;6.076;2022-08-07T08:37:22;19.00;99.90
37594;DHT22;23441;50.856;6.076;2022-08-07T08:39:53;19.00;99.90
37594;DHT22;23441;50.856;6.076;2022-08-07T08:42:24;19.10;99.90
37594;DHT22;23441;50.856;6.076;2022-08-07T08:45:05;19.10;99.60
37594;DHT22;23441;50.856;6.076;2022-08-07T08:48:03;19.10;98.00
37594;DHT22;23441;50.856;6.076;2022-08-07T08:53:56;19.10;97.90
37594;DHT22;23441;50.856;6.076;2022-08-07T08:56:32;19.50;97.60
37594;DHT22;23441;50.856;6.076;2022-08-07T09:01:59;22.40;92.60
37594;DHT22;23441;50.856;6.076;2022-08-07T09:07:35;24.30;85.80
37594;DHT22;23441;50.856;6.076;2022-08-07T09:10:17;24.80;83.80
37594;DHT22;23441;50.856;6.076;2022-08-07T09:21:55;26.50;77.50
37594;DHT22;23441;50.856;6.076;2022-08-07T09:28:02;27.70;74.80
37594;DHT22;23441;50.856;6.076;2022-08-07T09:31:07;27.40;73.80
37594;DHT22;23441;50.856;6.076;2022-08-07T09:33:58;26.70;72.80
37594;DHT22;23441;50.856;6.076;2022-08-07T09:36:50;25.90;73.70
37594;DHT22;23441;50.856;6.076;2022-08-07T09:46:01;24.10;75.10
37594;DHT22;23441;50.856;6.076;2022-08-07T09:54:32;23.10;79.70
37594;DHT22;23441;50.856;6.076;2022-08-07T10:08:57;22.40;81.90
37594;DHT22;23441;50.856;6.076;2022-08-07T10:14:44;22.00;78.10
37594;DHT22;23441;50.856;6.076;2022-08-07T10:17:47;22.10;79.70
37594;DHT22;23441;50.856;6.076;2022-08-07T10:20:31;22.10;81.60
37594;DHT22;23441;50.856;6.076;2022-08-07T10:23:48;21.80;76.80
37594;DHT22;23441;50.856;6.076;2022-08-07T10:29:56;22.40;79.60
37594;DHT22;23441;50.856;6.076;2022-08-07T10:38:58;25.30;77.70
37594;DHT22;23441;50.856;6.076;2022-08-07T10:41:44;25.80;76.00
37594;DHT22;23441;50.856;6.076;2022-08-07T10:44:18;25.80;74.60
37594;DHT22;23441;50.856;6.076;2022-08-07T10:47:10;25.60;75.10
37594;DHT22;23441;50.856;6.076;2022-08-07T10:52:50;25.20;74.10
37594;DHT22;23441;50.856;6.076;2022-08-07T10:55:28;25.00;74.00
37594;DHT22;23441;50.856;6.076;2022-08-07T10:58:51;24.70;71.60
37594;DHT22;23441;50.856;6.076;2022-08-07T11:01:35;24.90;77.80
37594;DHT22;23441;50.856;6.076;2022-08-07T11:04:27;24.80;72.10
37594;DHT22;23441;50.856;6.076;2022-08-07T11:09:53;25.20;74.20
37594;DHT22;23441;50.856;6.076;2022-08-07T11:15:07;25.40;72.90
37594;DHT22;23441;50.856;6.076;2022-08-07T11:17:53;25.20;71.70
37594;DHT22;23441;50.856;6.076;2022-08-07T11:20:25;25.20;70.20
37594;DHT22;23441;50.856;6.076;2022-08-07T11:23:29;24.90;71.00
37594;DHT22;23441;50.856;6.076;2022-08-07T11:26:32;24.70;73.40
37594;DHT22;23441;50.856;6.076;2022-08-07T11:29:09;25.10;71.40
37594;DHT22;23441;50.856;6.076;2022-08-07T11:32:11;25.00;73.10
37594;DHT22;23441;50.856;6.076;2022-08-07T11:34:58;25.20;71.10
37594;DHT22;23441;50.856;6.076;2022-08-07T11:40:50;24.90;70.40
37594;DHT22;23441;50.856;6.076;2022-08-07T11:43:21;25.00;73.20
37594;DHT22;23441;50.856;6.076;2022-08-07T11:52:14;25.00;73.60
37594;DHT22;23441;50.856;6.076;2022-08-07T11:55:30;24.90;70.10
37594;DHT22;23441;50.856;6.076;2022-08-07T12:01:20;25.40;75.10
37594;DHT22;23441;50.856;6.076;2022-08-07T12:06:58;24.90;73.40
37594;DHT22;23441;50.856;6.076;2022-08-07T12:09:55;25.10;73.70
37594;DHT22;23441;50.856;6.076;2022-08-07T12:15:14;25.20;75.30
37594;DHT22;23441;50.856;6.076;2022-08-07T12:18:12;24.80;68.30
37594;DHT22;23441;50.856;6.076;2022-08-07T12:20:56;25.00;75.70
37594;DHT22;23441;50.856;6.076;2022-08-07T12:23:51;25.40;71.70
37594;DHT22;23441;50.856;6.076;2022-08-07T12:26:24;24.60;70.80
37594;DHT22;23441;50.856;6.076;2022-08-07T12:29:08;25.00;73.10
37594;DHT22;23441;50.856;6.076;2022-08-07T12:32:00;25.10;73.00
37594;DHT22;23441;50.856;6.076;2022-08-07T12:34:37;25.80;75.90
37594;DHT22;23441;50.856;6.076;2022-08-07T12:37:06;25.50;70.00
37594;DHT22;23441;50.856;6.076;2022-08-07T12:39:34;25.70;70.70
37594;DHT22;23441;50.856;6.076;2022-08-07T12:42:02;25.60;72.30
37594;DHT22;23441;50.856;6.076;2022-08-07T12:44:31;25.60;70.70
37594;DHT22;23441;50.856;6.076;2022-08-07T12:50:10;25.90;71.60
37594;DHT22;23441;50.856;6.076;2022-08-07T12:53:03;25.70;76.10
37594;DHT22;23441;50.856;6.076;2022-08-07T12:55:51;25.50;72.40
37594;DHT22;23441;50.856;6.076;2022-08-07T12:58:23;25.60;73.30
37594;DHT22;23441;50.856;6.076;2022-08-07T13:15:49;25.80;68.10
37594;DHT22;23441;50.856;6.076;2022-08-07T13:23:57;25.90;67.60
37594;DHT22;23441;50.856;6.076;2022-08-07T13:32:34;25.30;70.10
37594;DHT22;23441;50.856;6.076;2022-08-07T13:35:28;25.50;69.90
37594;DHT22;23441;50.856;6.076;2022-08-07T13:43:53;25.90;70.70
37594;DHT22;23441;50.856;6.076;2022-08-07T13:46:20;25.70;69.80
37594;DHT22;23441;50.856;6.076;2022-08-07T13:48:51;25.90;67.90
37594;DHT22;23441;50.856;6.076;2022-08-07T13:51:19;26.10;70.60
37594;DHT22;23441;50.856;6.076;2022-08-07T13:53:57;26.00;68.80
37594;DHT22;23441;50.856;6.076;2022-08-07T13:56:25;26.30;72.60
37594;DHT22;23441;50.856;6.076;2022-08-07T13:58:52;26.30;69.40
37594;DHT22;23441;50.856;6.076;2022-08-07T14:01:31;26.50;72.40
37594;DHT22;23441;50.856;6.076;2022-08-07T14:04:09;26.00;69.00
37594;DHT22;23441;50.856;6.076;2022-08-07T14:06:39;26.00;71.20
37594;DHT22;23441;50.856;6.076;2022-08-07T14:09:15;26.50;72.90
37594;DHT22;23441;50.856;6.076;2022-08-07T14:11:48;26.40;71.90
37594;DHT22;23441;50.856;6.076;2022-08-07T14:14:19;26.20;71.50
37594;DHT22;23441;50.856;6.076;2022-08-07T14:16:47;26.40;72.70
37594;DHT22;23441;50.856;6.076;2022-08-07T14:19:18;26.50;68.40
37594;DHT22;23441;50.856;6.076;2022-08-07T14:21:49;25.90;68.00
37594;DHT22;23441;50.856;6.076;2022-08-07T14:24:44;25.90;71.30
37594;DHT22;23441;50.856;6.076;2022-08-07T14:27:14;25.50;68.50
37594;DHT22;23441;50.856;6.076;2022-08-07T14:29:46;25.50;68.60
37594;DHT22;23441;50.856;6.076;2022-08-07T14:32:15;25.40;67.60
37594;DHT22;23441;50.856;6.076;2022-08-07T14:34:45;25.30;68.40
37594;DHT22;23441;50.856;6.076;2022-08-07T14:37:13;25.80;69.10
37594;DHT22;23441;50.856;6.076;2022-08-07T14:39:43;25.80;67.90
37594;DHT22;23441;50.856;6.076;2022-08-07T14:42:12;25.90;67.20
37594;DHT22;23441;50.856;6.076;2022-08-07T14:44:45;26.10;69.20
37594;DHT22;23441;50.856;6.076;2022-08-07T14:47:16;26.10;68.80
37594;DHT22;23441;50.856;6.076;2022-08-07T14:49:44;25.70;69.70
37594;DHT22;23441;50.856;6.076;2022-08-07T14:52:11;25.10;69.60
37594;DHT22;23441;50.856;6.076;2022-08-07T14:54:40;25.00;69.90
37594;DHT22;23441;50.856;6.076;2022-08-07T14:57:11;25.20;71.70
37594;DHT22;23441;50.856;6.076;2022-08-07T14:59:40;25.40;70.20
37594;DHT22;23441;50.856;6.076;2022-08-07T15:02:13;25.70;72.40
37594;DHT22;23441;50.856;6.076;2022-08-07T15:04:45;26.00;69.30
37594;DHT22;23441;50.856;6.076;2022-08-07T15:07:20;25.90;71.50
37594;DHT22;23441;50.856;6.076;2022-08-07T15:09:50;25.60;71.90
37594;DHT22;23441;50.856;6.076;2022-08-07T15:12:34;25.80;72.00
37594;DHT22;23441;50.856;6.076;2022-08-07T15:15:04;26.10;71.80
37594;DHT22;23441;50.856;6.076;2022-08-07T15:17:42;25.90;72.10
37594;DHT22;23441;50.856;6.076;2022-08-07T15:20:12;26.00;71.10
37594;DHT22;23441;50.856;6.076;2022-08-07T15:22:52;26.10;70.10
37594;DHT22;23441;50.856;6.076;2022-08-07T15:25:25;25.80;70.30
37594;DHT22;23441;50.856;6.076;2022-08-07T15:27:58;25.70;72.60
37594;DHT22;23441;50.856;6.076;2022-08-07T15:30:26;25.90;71.30
37594;DHT22;23441;50.856;6.076;2022-08-07T15:32:53;26.00;71.60
37594;DHT22;23441;50.856;6.076;2022-08-07T15:35:25;25.50;70.20
37594;DHT22;23441;50.856;6.076;2022-08-07T15:37:56;25.50;71.10
37594;DHT22;23441;50.856;6.076;2022-08-07T15:40:26;25.80;70.20
37594;DHT22;23441;50.856;6.076;2022-08-07T15:42:58;25.80;72.00
37594;DHT22;23441;50.856;6.076;2022-08-07T15:45:32;25.60;72.30
37594;DHT22;23441;50.856;6.076;2022-08-07T15:48:19;25.80;70.90
37594;DHT22;23441;50.856;6.076;2022-08-07T15:50:50;25.80;71.30
37594;DHT22;23441;50.856;6.076;2022-08-07T15:53:53;25.60;72.30
37594;DHT22;23441;50.856;6.076;2022-08-07T15:56:23;25.60;72.90
37594;DHT22;23441;50.856;6.076;2022-08-07T15:58:58;25.80;73.50
37594;DHT22;23441;50.856;6.076;2022-08-07T16:01:31;25.60;72.50
37594;DHT22;23441;50.856;6.076;2022-08-07T16:04:02;25.30;71.10
37594;DHT22;23441;50.856;6.076;2022-08-07T16:06:32;25.20;71.50
37594;DHT22;23441;50.856;6.076;2022-08-07T16:20:30;25.80;73.40
37594;DHT22;23441;50.856;6.076;2022-08-07T16:26:01;25.30;73.10
37594;DHT22;23441;50.856;6.076;2022-08-07T16:32:03;25.10;74.90
37594;DHT22;23441;50.856;6.076;2022-08-07T16:40:49;25.20;74.30
37594;DHT22;23441;50.856;6.076;2022-08-07T16:50:09;25.20;72.80
37594;DHT22;23441;50.856;6.076;2022-08-07T17:04:09;24.70;73.10
37594;DHT22;23441;50.856;6.076;2022-08-07T17:06:40;24.30;74.40
37594;DHT22;23441;50.856;6.076;2022-08-07T17:17:47;23.90;75.10
37594;DHT22;23441;50.856;6.076;2022-08-07T17:20:34;23.70;75.00
37594;DHT22;23441;50.856;6.076;2022-08-07T17:31:32;23.30;77.20
37594;DHT22;23441;50.856;6.076;2022-08-07T17:34:19;23.30;76.50
37594;DHT22;23441;50.856;6.076;2022-08-07T17:36:53;23.20;77.40
37594;DHT22;23441;50.856;6.076;2022-08-07T17:39:48;23.20;77.60
37594;DHT22;23441;50.856;6.076;2022-08-07T17:42:48;23.00;77.80
37594;DHT22;23441;50.856;6.076;2022-08-07T17:45:32;22.90;77.70
37594;DHT22;23441;50.856;6.076;2022-08-07T17:48:06;22.80;77.40
37594;DHT22;23441;50.856;6.076;2022-08-07T17:50:57;22.70;78.00
37594;DHT22;23441;50.856;6.076;2022-08-07T17:53:36;22.50;78.20
37594;DHT22;23441;50.856;6.076;2022-08-07T18:01:47;22.30;79.10
37594;DHT22;23441;50.856;6.076;2022-08-07T18:04:50;22.30;79.60
37594;DHT22;23441;50.856;6.076;2022-08-07T18:07:40;22.20;79.70
37594;DHT22;23441;50.856;6.076;2022-08-07T18:10:37;22.10;80.70
37594;DHT22;23441;50.856;6.076;2022-08-07T18:13:39;22.00;81.10
37594;DHT22;23441;50.856;6.076;2022-08-07T18:16:38;22.00;80.70
37594;DHT22;23441;50.856;6.076;2022-08-07T18:19:20;22.00;80.70
37594;DHT22;23441;50.856;6.076;2022-08-07T18:21:59;21.90;82.00
37594;DHT22;23441;50.856;6.076;2022-08-07T18:27:57;21.70;82.40
37594;DHT22;23441;50.856;6.076;2022-08-07T18:34:35;21.60;83.60
37594;DHT22;23441;50.856;6.076;2022-08-07T18:37:27;21.50;83.40
37594;DHT22;23441;50.856;6.076;2022-08-07T18:46:39;21.30;84.80
37594;DHT22;23441;50.856;6.076;2022-08-07T18:49:23;21.20;86.40
37594;DHT22;23441;50.856;6.076;2022-08-07T18:52:24;21.10;85.10
37594;DHT22;23441;50.856;6.076;2022-08-07T18:55:22;21.10;85.90
37594;DHT22;23441;50.856;6.076;2022-08-07T19:00:50;21.00;85.90
37594;DHT22;23441;50.856;6.076;2022-08-07T19:06:25;20.90;86.60
37594;DHT22;23441;50.856;6.076;2022-08-07T19:14:11;20.60;88.00
37594;DHT22;23441;50.856;6.076;2022-08-07T19:16:52;20.50;87.70
37594;DHT22;23441;50.856;6.076;2022-08-07T19:19:37;20.50;89.10
37594;DHT22;23441;50.856;6.076;2022-08-07T19:24:59;20.20;89.60
37594;DHT22;23441;50.856;6.076;2022-08-07T19:27:31;20.20;90.20
37594;DHT22;23441;50.856;6.076;2022-08-07T19:30:07;20.00;90.20
37594;DHT22;23441;50.856;6.076;2022-08-07T19:32:39;20.00;90.20
37594;DHT22;23441;50.856;6.076;2022-08-07T19:35:17;20.00;90.30
37594;DHT22;23441;50.856;6.076;2022-08-07T19:37:49;19.90;90.50
37594;DHT22;23441;50.856;6.076;2022-08-07T19:40:19;19.80;91.10
37594;DHT22;23441;50.856;6.076;2022-08-07T19:42:47;19.80;91.20
37594;DHT22;23441;50.856;6.076;2022-08-07T19:45:20;19.70;91.10
37594;DHT22;23441;50.856;6.076;2022-08-07T19:47:49;19.70;91.10
37594;DHT22;23441;50.856;6.076;2022-08-07T19:50:18;19.60;91.10
37594;DHT22;23441;50.856;6.076;2022-08-07T19:52:46;19.60;91.70
37594;DHT22;23441;50.856;6.076;2022-08-07T19:55:17;19.40;91.70